sensor_id;sensor_type;location;lat;lon;timestamp;P1;durP1;ratioP1;P2;durP2;ratioP2
21334;SDS011;69435;52.670;13.544;2023-12-20T00:01:12;5.83;;;3.70;;
21334;SDS011;69435;52.670;13.544;2023-12-20T00:03:58;3.67;;;3.37;;
21334;SDS011;69435;52.670;13.544;2023-12-20T00:06:44;3.80;;;3.50;;
21334;SDS011;69435;52.670;13.544;2023-12-20T00:09:30;4.17;;;3.70;;
21334;SDS011;69435;52.670;13.544;2023-12-20T00:12:16;4.17;;;3.80;;
21334;SDS011;69435;52.670;13.544;2023-12-20T00:15:02;4.33;;;3.70;;
21334;SDS011;69435;52.670;13.544;2023-12-20T00:17:48;6.37;;;4.00;;
21334;SDS011;69435;52.670;13.544;2023-12-20T00:20:34;4.20;;;3.50;;
21334;SDS011;69435;52.670;13.544;2023-12-20T00:23:21;4.73;;;4.20;;
21334;SDS011;69435;52.670;13.544;2023-12-20T00:26:08;4.27;;;3.87;;
21334;SDS011;69435;52.670;13.544;2023-12-20T00:28:54;4.97;;;4.13;;
21334;SDS011;69435;52.670;13.544;2023-12-20T00:31:40;4.77;;;3.80;;
21334;SDS011;69435;52.670;13.544;2023-12-20T00:34:26;4.20;;;3.77;;
21334;SDS011;69435;52.670;13.544;2023-12-20T00:37:12;4.90;;;4.40;;
21334;SDS011;69435;52.670;13.544;2023-12-20T00:39:58;4.70;;;4.03;;
21334;SDS011;69435;52.670;13.544;2023-12-20T00:42:44;5.40;;;4.40;;
21334;SDS011;69435;52.670;13.544;2023-12-20T00:45:32;4.33;;;3.97;;
21334;SDS011;69435;52.670;13.544;2023-12-20T00:48:18;4.70;;;4.30;;
21334;SDS011;69435;52.670;13.544;2023-12-20T00:51:04;6.50;;;4.33;;
21334;SDS011;69435;52.670;13.544;2023-12-20T00:53:50;5.97;;;3.90;;
21334;SDS011;69435;52.670;13.544;2023-12-20T00:56:40;4.77;;;4.27;;
21334;SDS011;69435;52.670;13.544;2023-12-20T00:59:26;4.77;;;4.20;;
21334;SDS011;69435;52.670;13.544;2023-12-20T01:02:12;4.53;;;4.13;;
21334;SDS011;69435;52.670;13.544;2023-12-20T01:04:57;6.17;;;4.53;;
21334;SDS011;69435;52.670;13.544;2023-12-20T01:07:44;5.13;;;4.07;;
21334;SDS011;69435;52.670;13.544;2023-12-20T01:10:30;5.73;;;4.10;;
21334;SDS011;69435;52.670;13.544;2023-12-20T01:13:16;4.40;;;4.00;;
21334;SDS011;69435;52.670;13.544;2023-12-20T01:16:02;5.07;;;4.57;;
21334;SDS011;69435;52.670;13.544;2023-12-20T01:18:48;5.13;;;4.67;;
21334;SDS011;69435;52.670;13.544;2023-12-20T01:21:34;6.03;;;4.60;;
21334;SDS011;69435;52.670;13.544;2023-12-20T01:24:20;7.30;;;5.13;;
21334;SDS011;69435;52.670;13.544;2023-12-20T01:27:06;8.27;;;5.67;;
21334;SDS011;69435;52.670;13.544;2023-12-20T01:29:52;7.77;;;6.37;;
21334;SDS011;69435;52.670;13.544;2023-12-20T01:32:38;10.33;;;4.90;;
21334;SDS011;69435;52.670;13.544;2023-12-20T01:35:24;6.33;;;5.27;;
21334;SDS011;69435;52.670;13.544;2023-12-20T01:38:10;7.70;;;5.87;;
21334;SDS011;69435;52.670;13.544;2023-12-20T01:40:56;6.13;;;3.90;;
21334;SDS011;69435;52.670;13.544;2023-12-20T01:43:42;6.10;;;4.83;;
21334;SDS011;69435;52.670;13.544;2023-12-20T01:46:28;5.50;;;3.93;;
21334;SDS011;69435;52.670;13.544;2023-12-20T01:49:14;4.50;;;3.73;;
21334;SDS011;69435;52.670;13.544;2023-12-20T01:52:01;10.70;;;4.27;;
21334;SDS011;69435;52.670;13.544;2023-12-20T01:54:48;5.60;;;4.03;;
21334;SDS011;69435;52.670;13.544;2023-12-20T01:57:34;4.83;;;3.90;;
21334;SDS011;69435;52.670;13.544;2023-12-20T02:00:20;9.20;;;4.00;;
21334;SDS011;69435;52.670;13.544;2023-12-20T02:03:12;4.30;;;3.67;;
21334;SDS011;69435;52.670;13.544;2023-12-20T02:05:58;5.40;;;3.80;;
21334;SDS011;69435;52.670;13.544;2023-12-20T02:08:44;6.20;;;3.47;;
21334;SDS011;69435;52.670;13.544;2023-12-20T02:11:29;3.50;;;3.20;;
21334;SDS011;69435;52.670;13.544;2023-12-20T02:14:16;4.20;;;3.40;;
21334;SDS011;69435;52.670;13.544;2023-12-20T02:17:02;4.97;;;3.63;;
21334;SDS011;69435;52.670;13.544;2023-12-20T02:19:49;6.27;;;3.47;;
21334;SDS011;69435;52.670;13.544;2023-12-20T02:22:35;3.20;;;2.90;;
21334;SDS011;69435;52.670;13.544;2023-12-20T02:25:21;6.83;;;3.60;;
21334;SDS011;69435;52.670;13.544;2023-12-20T02:28:07;3.30;;;3.00;;
21334;SDS011;69435;52.670;13.544;2023-12-20T02:30:53;5.80;;;3.70;;
21334;SDS011;69435;52.670;13.544;2023-12-20T02:33:39;6.17;;;3.30;;
21334;SDS011;69435;52.670;13.544;2023-12-20T02:36:27;8.70;;;3.67;;
21334;SDS011;69435;52.670;13.544;2023-12-20T02:39:13;7.93;;;3.67;;
21334;SDS011;69435;52.670;13.544;2023-12-20T02:41:59;5.70;;;4.07;;
21334;SDS011;69435;52.670;13.544;2023-12-20T02:44:45;5.50;;;3.57;;
21334;SDS011;69435;52.670;13.544;2023-12-20T02:47:31;4.07;;;3.17;;
21334;SDS011;69435;52.670;13.544;2023-12-20T02:50:17;4.60;;;3.93;;
21334;SDS011;69435;52.670;13.544;2023-12-20T02:53:03;4.07;;;3.67;;
21334;SDS011;69435;52.670;13.544;2023-12-20T02:55:49;5.67;;;3.80;;
21334;SDS011;69435;52.670;13.544;2023-12-20T02:58:35;7.23;;;4.20;;
21334;SDS011;69435;52.670;13.544;2023-12-20T03:01:21;6.97;;;5.00;;
21334;SDS011;69435;52.670;13.544;2023-12-20T03:04:07;8.13;;;2.97;;
21334;SDS011;69435;52.670;13.544;2023-12-20T03:06:53;4.43;;;3.93;;
21334;SDS011;69435;52.670;13.544;2023-12-20T03:09:39;3.90;;;3.47;;
21334;SDS011;69435;52.670;13.544;2023-12-20T03:12:24;5.13;;;3.67;;
21334;SDS011;69435;52.670;13.544;2023-12-20T03:15:10;9.00;;;3.90;;
21334;SDS011;69435;52.670;13.544;2023-12-20T03:17:58;6.40;;;3.80;;
21334;SDS011;69435;52.670;13.544;2023-12-20T03:20:44;4.83;;;3.53;;
21334;SDS011;69435;52.670;13.544;2023-12-20T03:23:32;5.50;;;3.67;;
21334;SDS011;69435;52.670;13.544;2023-12-20T03:26:18;6.57;;;3.43;;
21334;SDS011;69435;52.670;13.544;2023-12-20T03:29:04;4.80;;;3.77;;
21334;SDS011;69435;52.670;13.544;2023-12-20T03:31:50;5.20;;;3.00;;
21334;SDS011;69435;52.670;13.544;2023-12-20T03:34:36;6.10;;;3.20;;
21334;SDS011;69435;52.670;13.544;2023-12-20T03:37:23;4.47;;;2.97;;
21334;SDS011;69435;52.670;13.544;2023-12-20T03:40:09;4.50;;;3.23;;
21334;SDS011;69435;52.670;13.544;2023-12-20T03:42:55;6.87;;;3.20;;
21334;SDS011;69435;52.670;13.544;2023-12-20T03:45:41;4.50;;;2.90;;
21334;SDS011;69435;52.670;13.544;2023-12-20T03:48:28;9.30;;;3.50;;
21334;SDS011;69435;52.670;13.544;2023-12-20T03:51:15;5.93;;;3.10;;
21334;SDS011;69435;52.670;13.544;2023-12-20T03:54:01;7.53;;;3.33;;
21334;SDS011;69435;52.670;13.544;2023-12-20T03:56:47;4.23;;;3.00;;
21334;SDS011;69435;52.670;13.544;2023-12-20T03:59:36;3.37;;;2.63;;
21334;SDS011;69435;52.670;13.544;2023-12-20T04:02:23;9.37;;;2.87;;
21334;SDS011;69435;52.670;13.544;2023-12-20T04:05:09;7.90;;;2.03;;
21334;SDS011;69435;52.670;13.544;2023-12-20T04:07:55;4.70;;;2.03;;
21334;SDS011;69435;52.670;13.544;2023-12-20T04:10:41;4.90;;;2.00;;
21334;SDS011;69435;52.670;13.544;2023-12-20T04:13:27;11.83;;;2.80;;
21334;SDS011;69435;52.670;13.544;2023-12-20T04:16:13;19.70;;;3.07;;
21334;SDS011;69435;52.670;13.544;2023-12-20T04:18:59;8.57;;;2.80;;
21334;SDS011;69435;52.670;13.544;2023-12-20T04:21:46;5.10;;;2.23;;
21334;SDS011;69435;52.670;13.544;2023-12-20T04:24:32;2.30;;;1.90;;
21334;SDS011;69435;52.670;13.544;2023-12-20T04:27:18;4.13;;;2.17;;
21334;SDS011;69435;52.670;13.544;2023-12-20T04:30:04;10.30;;;2.33;;
21334;SDS011;69435;52.670;13.544;2023-12-20T04:32:51;5.67;;;2.33;;
21334;SDS011;69435;52.670;13.544;2023-12-20T04:35:37;5.63;;;2.63;;
21334;SDS011;69435;52.670;13.544;2023-12-20T04:38:23;10.10;;;1.83;;
21334;SDS011;69435;52.670;13.544;2023-12-20T04:41:09;2.30;;;1.67;;
21334;SDS011;69435;52.670;13.544;2023-12-20T04:43:54;15.73;;;2.30;;
21334;SDS011;69435;52.670;13.544;2023-12-20T04:46:40;6.47;;;1.80;;
21334;SDS011;69435;52.670;13.544;2023-12-20T04:49:27;12.53;;;2.37;;
21334;SDS011;69435;52.670;13.544;2023-12-20T04:52:14;4.17;;;2.30;;
21334;SDS011;69435;52.670;13.544;2023-12-20T04:55:00;7.87;;;2.00;;
21334;SDS011;69435;52.670;13.544;2023-12-20T04:57:46;5.43;;;1.87;;
21334;SDS011;69435;52.670;13.544;2023-12-20T05:00:33;5.77;;;1.90;;
21334;SDS011;69435;52.670;13.544;2023-12-20T05:03:19;5.13;;;2.07;;
21334;SDS011;69435;52.670;13.544;2023-12-20T05:06:05;4.73;;;2.07;;
21334;SDS011;69435;52.670;13.544;2023-12-20T05:08:51;5.13;;;1.77;;
21334;SDS011;69435;52.670;13.544;2023-12-20T05:11:37;10.23;;;2.03;;
21334;SDS011;69435;52.670;13.544;2023-12-20T05:14:23;6.43;;;2.17;;
21334;SDS011;69435;52.670;13.544;2023-12-20T05:17:10;9.90;;;2.20;;
21334;SDS011;69435;52.670;13.544;2023-12-20T05:19:56;9.57;;;2.43;;
21334;SDS011;69435;52.670;13.544;2023-12-20T05:22:42;8.53;;;2.00;;
21334;SDS011;69435;52.670;13.544;2023-12-20T05:25:28;7.10;;;3.13;;
21334;SDS011;69435;52.670;13.544;2023-12-20T05:28:13;5.33;;;2.43;;
21334;SDS011;69435;52.670;13.544;2023-12-20T05:31:00;10.47;;;1.93;;
21334;SDS011;69435;52.670;13.544;2023-12-20T05:33:47;3.20;;;2.43;;
21334;SDS011;69435;52.670;13.544;2023-12-20T05:36:32;7.13;;;2.20;;
21334;SDS011;69435;52.670;13.544;2023-12-20T05:39:18;10.43;;;2.30;;
21334;SDS011;69435;52.670;13.544;2023-12-20T05:42:04;4.53;;;2.50;;
21334;SDS011;69435;52.670;13.544;2023-12-20T05:44:50;5.87;;;2.53;;
21334;SDS011;69435;52.670;13.544;2023-12-20T05:47:36;7.83;;;2.10;;
21334;SDS011;69435;52.670;13.544;2023-12-20T05:50:22;6.30;;;2.20;;
21334;SDS011;69435;52.670;13.544;2023-12-20T05:53:08;7.67;;;2.30;;
21334;SDS011;69435;52.670;13.544;2023-12-20T05:55:54;14.13;;;2.10;;
21334;SDS011;69435;52.670;13.544;2023-12-20T05:58:40;11.37;;;2.83;;
21334;SDS011;69435;52.670;13.544;2023-12-20T06:01:26;7.17;;;1.93;;
21334;SDS011;69435;52.670;13.544;2023-12-20T06:04:12;6.47;;;1.83;;
21334;SDS011;69435;52.670;13.544;2023-12-20T06:06:58;2.27;;;1.90;;
21334;SDS011;69435;52.670;13.544;2023-12-20T06:09:45;4.80;;;2.20;;
21334;SDS011;69435;52.670;13.544;2023-12-20T06:12:31;4.40;;;1.93;;
21334;SDS011;69435;52.670;13.544;2023-12-20T06:15:18;12.63;;;2.27;;
21334;SDS011;69435;52.670;13.544;2023-12-20T06:18:05;13.50;;;1.80;;
21334;SDS011;69435;52.670;13.544;2023-12-20T06:20:51;4.23;;;1.57;;
21334;SDS011;69435;52.670;13.544;2023-12-20T06:23:37;4.23;;;1.60;;
21334;SDS011;69435;52.670;13.544;2023-12-20T06:26:24;7.37;;;2.00;;
21334;SDS011;69435;52.670;13.544;2023-12-20T06:29:09;11.23;;;2.20;;
21334;SDS011;69435;52.670;13.544;2023-12-20T06:31:55;9.40;;;1.90;;
21334;SDS011;69435;52.670;13.544;2023-12-20T06:34:41;9.13;;;1.90;;
21334;SDS011;69435;52.670;13.544;2023-12-20T06:37:27;8.50;;;1.80;;
21334;SDS011;69435;52.670;13.544;2023-12-20T06:40:13;8.30;;;2.00;;
21334;SDS011;69435;52.670;13.544;2023-12-20T06:42:59;4.80;;;1.63;;
21334;SDS011;69435;52.670;13.544;2023-12-20T06:45:45;10.43;;;2.43;;
21334;SDS011;69435;52.670;13.544;2023-12-20T06:48:31;3.80;;;1.70;;
21334;SDS011;69435;52.670;13.544;2023-12-20T06:51:17;10.70;;;2.17;;
21334;SDS011;69435;52.670;13.544;2023-12-20T06:54:05;3.17;;;2.03;;
21334;SDS011;69435;52.670;13.544;2023-12-20T06:56:51;3.90;;;1.60;;
21334;SDS011;69435;52.670;13.544;2023-12-20T06:59:40;9.50;;;2.63;;
21334;SDS011;69435;52.670;13.544;2023-12-20T07:02:26;8.67;;;2.37;;
21334;SDS011;69435;52.670;13.544;2023-12-20T07:05:18;10.83;;;2.13;;
21334;SDS011;69435;52.670;13.544;2023-12-20T07:08:05;11.77;;;2.13;;
21334;SDS011;69435;52.670;13.544;2023-12-20T07:10:51;4.73;;;1.93;;
21334;SDS011;69435;52.670;13.544;2023-12-20T07:13:37;6.57;;;2.37;;
21334;SDS011;69435;52.670;13.544;2023-12-20T07:16:23;11.90;;;1.90;;
21334;SDS011;69435;52.670;13.544;2023-12-20T07:19:10;8.03;;;2.17;;
21334;SDS011;69435;52.670;13.544;2023-12-20T07:21:55;10.27;;;2.10;;
21334;SDS011;69435;52.670;13.544;2023-12-20T07:24:41;11.73;;;2.70;;
21334;SDS011;69435;52.670;13.544;2023-12-20T07:27:27;5.73;;;2.40;;
21334;SDS011;69435;52.670;13.544;2023-12-20T07:30:13;6.23;;;2.30;;
21334;SDS011;69435;52.670;13.544;2023-12-20T07:33:00;16.20;;;3.03;;
21334;SDS011;69435;52.670;13.544;2023-12-20T07:35:46;7.80;;;1.77;;
21334;SDS011;69435;52.670;13.544;2023-12-20T07:38:32;6.53;;;2.27;;
21334;SDS011;69435;52.670;13.544;2023-12-20T07:41:18;16.27;;;2.93;;
21334;SDS011;69435;52.670;13.544;2023-12-20T07:44:06;9.17;;;2.60;;
21334;SDS011;69435;52.670;13.544;2023-12-20T07:46:52;17.47;;;2.67;;
21334;SDS011;69435;52.670;13.544;2023-12-20T07:49:38;10.13;;;3.00;;
21334;SDS011;69435;52.670;13.544;2023-12-20T07:52:24;11.07;;;3.20;;
21334;SDS011;69435;52.670;13.544;2023-12-20T07:55:11;13.67;;;3.97;;
21334;SDS011;69435;52.670;13.544;2023-12-20T07:57:57;9.80;;;2.90;;
21334;SDS011;69435;52.670;13.544;2023-12-20T08:00:44;23.07;;;3.07;;
21334;SDS011;69435;52.670;13.544;2023-12-20T08:03:30;3.87;;;1.73;;
21334;SDS011;69435;52.670;13.544;2023-12-20T08:06:16;7.00;;;3.17;;
21334;SDS011;69435;52.670;13.544;2023-12-20T08:09:02;8.13;;;3.00;;
21334;SDS011;69435;52.670;13.544;2023-12-20T08:11:49;9.83;;;2.77;;
21334;SDS011;69435;52.670;13.544;2023-12-20T08:14:35;2.00;;;1.50;;
21334;SDS011;69435;52.670;13.544;2023-12-20T08:17:21;2.47;;;2.03;;
21334;SDS011;69435;52.670;13.544;2023-12-20T08:20:08;8.63;;;2.37;;
21334;SDS011;69435;52.670;13.544;2023-12-20T08:22:54;5.70;;;2.37;;
21334;SDS011;69435;52.670;13.544;2023-12-20T08:25:40;16.60;;;3.43;;
21334;SDS011;69435;52.670;13.544;2023-12-20T08:28:26;5.40;;;2.30;;
21334;SDS011;69435;52.670;13.544;2023-12-20T08:31:16;6.97;;;3.37;;
21334;SDS011;69435;52.670;13.544;2023-12-20T08:34:03;4.47;;;1.83;;
21334;SDS011;69435;52.670;13.544;2023-12-20T08:36:50;10.23;;;1.40;;
21334;SDS011;69435;52.670;13.544;2023-12-20T08:39:36;8.10;;;2.37;;
21334;SDS011;69435;52.670;13.544;2023-12-20T08:42:22;5.23;;;1.63;;
21334;SDS011;69435;52.670;13.544;2023-12-20T08:45:10;5.57;;;1.93;;
21334;SDS011;69435;52.670;13.544;2023-12-20T08:47:56;4.60;;;1.73;;
21334;SDS011;69435;52.670;13.544;2023-12-20T08:50:42;2.07;;;1.27;;
21334;SDS011;69435;52.670;13.544;2023-12-20T08:53:28;7.30;;;2.07;;
21334;SDS011;69435;52.670;13.544;2023-12-20T08:56:15;5.37;;;1.63;;
21334;SDS011;69435;52.670;13.544;2023-12-20T08:59:02;7.43;;;2.07;;
21334;SDS011;69435;52.670;13.544;2023-12-20T09:01:47;11.93;;;2.23;;
21334;SDS011;69435;52.670;13.544;2023-12-20T09:04:39;2.73;;;2.03;;
21334;SDS011;69435;52.670;13.544;2023-12-20T09:07:25;6.77;;;2.40;;
21334;SDS011;69435;52.670;13.544;2023-12-20T09:10:12;9.27;;;2.13;;
21334;SDS011;69435;52.670;13.544;2023-12-20T09:12:58;6.43;;;2.87;;
21334;SDS011;69435;52.670;13.544;2023-12-20T09:15:44;6.73;;;2.10;;
21334;SDS011;69435;52.670;13.544;2023-12-20T09:18:30;7.17;;;2.10;;
21334;SDS011;69435;52.670;13.544;2023-12-20T09:21:16;14.13;;;2.17;;
21334;SDS011;69435;52.670;13.544;2023-12-20T09:24:02;2.13;;;1.33;;
21334;SDS011;69435;52.670;13.544;2023-12-20T09:26:48;4.27;;;1.60;;
21334;SDS011;69435;52.670;13.544;2023-12-20T09:29:34;1.37;;;1.27;;
21334;SDS011;69435;52.670;13.544;2023-12-20T09:32:21;5.57;;;1.67;;
21334;SDS011;69435;52.670;13.544;2023-12-20T09:35:07;5.47;;;0.87;;
21334;SDS011;69435;52.670;13.544;2023-12-20T09:37:54;7.93;;;2.50;;
21334;SDS011;69435;52.670;13.544;2023-12-20T09:40:41;7.27;;;2.07;;
21334;SDS011;69435;52.670;13.544;2023-12-20T09:43:27;7.67;;;2.00;;
21334;SDS011;69435;52.670;13.544;2023-12-20T09:46:16;5.80;;;1.90;;
21334;SDS011;69435;52.670;13.544;2023-12-20T09:49:10;9.83;;;2.07;;
21334;SDS011;69435;52.670;13.544;2023-12-20T09:51:57;5.90;;;1.80;;
21334;SDS011;69435;52.670;13.544;2023-12-20T09:54:45;8.80;;;2.30;;
21334;SDS011;69435;52.670;13.544;2023-12-20T09:57:36;6.03;;;1.57;;
21334;SDS011;69435;52.670;13.544;2023-12-20T10:00:22;8.37;;;2.37;;
21334;SDS011;69435;52.670;13.544;2023-12-20T10:03:09;7.60;;;2.17;;
21334;SDS011;69435;52.670;13.544;2023-12-20T10:05:56;2.20;;;1.23;;
21334;SDS011;69435;52.670;13.544;2023-12-20T10:08:46;9.67;;;1.70;;
21334;SDS011;69435;52.670;13.544;2023-12-20T10:11:32;12.10;;;1.97;;
21334;SDS011;69435;52.670;13.544;2023-12-20T10:14:19;8.50;;;1.70;;
21334;SDS011;69435;52.670;13.544;2023-12-20T10:17:08;8.50;;;2.03;;
21334;SDS011;69435;52.670;13.544;2023-12-20T10:19:54;5.30;;;2.27;;
21334;SDS011;69435;52.670;13.544;2023-12-20T10:22:40;6.23;;;1.73;;
21334;SDS011;69435;52.670;13.544;2023-12-20T10:25:26;5.17;;;1.63;;
21334;SDS011;69435;52.670;13.544;2023-12-20T10:28:15;2.47;;;1.53;;
21334;SDS011;69435;52.670;13.544;2023-12-20T10:31:08;6.97;;;2.23;;
21334;SDS011;69435;52.670;13.544;2023-12-20T10:33:55;1.63;;;1.37;;
21334;SDS011;69435;52.670;13.544;2023-12-20T10:36:43;5.70;;;1.77;;
21334;SDS011;69435;52.670;13.544;2023-12-20T10:39:30;9.30;;;1.87;;
21334;SDS011;69435;52.670;13.544;2023-12-20T10:42:18;6.93;;;2.23;;
21334;SDS011;69435;52.670;13.544;2023-12-20T10:45:07;4.30;;;1.33;;
21334;SDS011;69435;52.670;13.544;2023-12-20T10:47:53;3.73;;;1.50;;
21334;SDS011;69435;52.670;13.544;2023-12-20T10:50:41;7.40;;;1.73;;
21334;SDS011;69435;52.670;13.544;2023-12-20T10:53:29;6.70;;;1.83;;
21334;SDS011;69435;52.670;13.544;2023-12-20T10:56:17;2.77;;;1.53;;
21334;SDS011;69435;52.670;13.544;2023-12-20T10:59:04;6.77;;;2.40;;
21334;SDS011;69435;52.670;13.544;2023-12-20T11:01:55;3.23;;;1.70;;
21334;SDS011;69435;52.670;13.544;2023-12-20T11:08:02;5.27;;;1.67;;
21334;SDS011;69435;52.670;13.544;2023-12-20T11:10:59;8.33;;;2.07;;
21334;SDS011;69435;52.670;13.544;2023-12-20T11:14:03;5.43;;;1.87;;
21334;SDS011;69435;52.670;13.544;2023-12-20T11:17:05;12.67;;;2.67;;
21334;SDS011;69435;52.670;13.544;2023-12-20T11:22:54;12.17;;;1.80;;
21334;SDS011;69435;52.670;13.544;2023-12-20T11:25:47;12.07;;;3.00;;
21334;SDS011;69435;52.670;13.544;2023-12-20T11:28:37;2.20;;;1.63;;
21334;SDS011;69435;52.670;13.544;2023-12-20T11:31:23;6.97;;;1.80;;
21334;SDS011;69435;52.670;13.544;2023-12-20T11:34:14;9.17;;;2.43;;
21334;SDS011;69435;52.670;13.544;2023-12-20T11:37:03;7.07;;;2.10;;
21334;SDS011;69435;52.670;13.544;2023-12-20T11:39:55;11.03;;;2.13;;
21334;SDS011;69435;52.670;13.544;2023-12-20T11:42:42;19.13;;;2.83;;
21334;SDS011;69435;52.670;13.544;2023-12-20T11:45:31;3.30;;;1.77;;
21334;SDS011;69435;52.670;13.544;2023-12-20T11:48:17;5.10;;;2.57;;
21334;SDS011;69435;52.670;13.544;2023-12-20T11:51:10;6.23;;;1.80;;
21334;SDS011;69435;52.670;13.544;2023-12-20T11:53:57;7.57;;;2.00;;
21334;SDS011;69435;52.670;13.544;2023-12-20T11:56:43;5.07;;;2.13;;
21334;SDS011;69435;52.670;13.544;2023-12-20T11:59:30;7.50;;;2.40;;
21334;SDS011;69435;52.670;13.544;2023-12-20T12:02:16;8.73;;;2.30;;
21334;SDS011;69435;52.670;13.544;2023-12-20T12:05:02;11.93;;;2.63;;
21334;SDS011;69435;52.670;13.544;2023-12-20T12:07:51;5.87;;;2.13;;
21334;SDS011;69435;52.670;13.544;2023-12-20T12:10:38;10.43;;;2.87;;
21334;SDS011;69435;52.670;13.544;2023-12-20T12:13:24;8.17;;;2.03;;
21334;SDS011;69435;52.670;13.544;2023-12-20T12:16:13;4.43;;;2.33;;
21334;SDS011;69435;52.670;13.544;2023-12-20T12:19:04;6.30;;;2.73;;
21334;SDS011;69435;52.670;13.544;2023-12-20T12:21:50;8.73;;;2.27;;
21334;SDS011;69435;52.670;13.544;2023-12-20T12:24:48;9.23;;;2.53;;
21334;SDS011;69435;52.670;13.544;2023-12-20T12:27:34;5.17;;;2.37;;
21334;SDS011;69435;52.670;13.544;2023-12-20T12:30:20;3.30;;;1.97;;
21334;SDS011;69435;52.670;13.544;2023-12-20T12:33:07;5.40;;;2.07;;
21334;SDS011;69435;52.670;13.544;2023-12-20T12:35:53;8.23;;;2.27;;
21334;SDS011;69435;52.670;13.544;2023-12-20T12:38:41;1.97;;;1.67;;
21334;SDS011;69435;52.670;13.544;2023-12-20T12:41:27;6.00;;;2.90;;
21334;SDS011;69435;52.670;13.544;2023-12-20T12:44:14;4.27;;;2.23;;
21334;SDS011;69435;52.670;13.544;2023-12-20T12:47:00;8.10;;;2.43;;
21334;SDS011;69435;52.670;13.544;2023-12-20T12:49:49;11.10;;;2.83;;
21334;SDS011;69435;52.670;13.544;2023-12-20T12:52:37;4.20;;;2.67;;
21334;SDS011;69435;52.670;13.544;2023-12-20T12:55:23;4.33;;;2.53;;
21334;SDS011;69435;52.670;13.544;2023-12-20T12:58:09;5.93;;;1.90;;
21334;SDS011;69435;52.670;13.544;2023-12-20T13:00:55;9.37;;;1.63;;
21334;SDS011;69435;52.670;13.544;2023-12-20T13:03:41;6.27;;;2.33;;
21334;SDS011;69435;52.670;13.544;2023-12-20T13:06:27;2.67;;;2.07;;
21334;SDS011;69435;52.670;13.544;2023-12-20T13:09:13;5.47;;;2.13;;
21334;SDS011;69435;52.670;13.544;2023-12-20T13:12:00;3.47;;;1.73;;
21334;SDS011;69435;52.670;13.544;2023-12-20T13:14:49;2.50;;;1.00;;
21334;SDS011;69435;52.670;13.544;2023-12-20T13:17:35;2.17;;;1.60;;
21334;SDS011;69435;52.670;13.544;2023-12-20T13:20:21;3.33;;;1.47;;
21334;SDS011;69435;52.670;13.544;2023-12-20T13:23:07;3.37;;;1.20;;
21334;SDS011;69435;52.670;13.544;2023-12-20T13:25:53;4.23;;;1.30;;
21334;SDS011;69435;52.670;13.544;2023-12-20T13:28:39;0.70;;;0.70;;
21334;SDS011;69435;52.670;13.544;2023-12-20T13:31:25;1.23;;;0.53;;
21334;SDS011;69435;52.670;13.544;2023-12-20T13:34:11;2.07;;;0.90;;
21334;SDS011;69435;52.670;13.544;2023-12-20T13:36:57;0.53;;;0.47;;
21334;SDS011;69435;52.670;13.544;2023-12-20T13:39:43;3.27;;;1.10;;
21334;SDS011;69435;52.670;13.544;2023-12-20T13:42:29;0.70;;;0.70;;
21334;SDS011;69435;52.670;13.544;2023-12-20T13:45:16;3.70;;;0.93;;
21334;SDS011;69435;52.670;13.544;2023-12-20T13:48:02;2.07;;;0.90;;
21334;SDS011;69435;52.670;13.544;2023-12-20T13:50:48;1.63;;;1.20;;
21334;SDS011;69435;52.670;13.544;2023-12-20T13:53:34;2.03;;;0.97;;
21334;SDS011;69435;52.670;13.544;2023-12-20T13:56:20;3.03;;;1.00;;
21334;SDS011;69435;52.670;13.544;2023-12-20T13:59:06;3.33;;;0.93;;
21334;SDS011;69435;52.670;13.544;2023-12-20T14:01:52;1.60;;;0.70;;
21334;SDS011;69435;52.670;13.544;2023-12-20T14:04:38;1.70;;;0.73;;
21334;SDS011;69435;52.670;13.544;2023-12-20T14:07:24;2.50;;;0.50;;
21334;SDS011;69435;52.670;13.544;2023-12-20T14:10:11;1.27;;;0.60;;
21334;SDS011;69435;52.670;13.544;2023-12-20T14:13:01;0.30;;;0.30;;
21334;SDS011;69435;52.670;13.544;2023-12-20T14:15:47;1.13;;;1.00;;
21334;SDS011;69435;52.670;13.544;2023-12-20T14:18:34;1.07;;;0.57;;
21334;SDS011;69435;52.670;13.544;2023-12-20T14:21:20;0.67;;;0.67;;
21334;SDS011;69435;52.670;13.544;2023-12-20T14:24:07;0.47;;;0.47;;
21334;SDS011;69435;52.670;13.544;2023-12-20T14:26:53;1.70;;;0.53;;
21334;SDS011;69435;52.670;13.544;2023-12-20T14:29:39;1.00;;;0.50;;
21334;SDS011;69435;52.670;13.544;2023-12-20T14:32:25;0.80;;;0.70;;
21334;SDS011;69435;52.670;13.544;2023-12-20T14:35:13;1.53;;;0.57;;
21334;SDS011;69435;52.670;13.544;2023-12-20T14:37:59;4.23;;;0.73;;
21334;SDS011;69435;52.670;13.544;2023-12-20T14:40:46;1.50;;;0.60;;
21334;SDS011;69435;52.670;13.544;2023-12-20T14:43:32;0.97;;;0.30;;
21334;SDS011;69435;52.670;13.544;2023-12-20T14:46:18;0.63;;;0.63;;
21334;SDS011;69435;52.670;13.544;2023-12-20T14:49:07;1.97;;;0.47;;
21334;SDS011;69435;52.670;13.544;2023-12-20T14:51:53;1.40;;;0.73;;
21334;SDS011;69435;52.670;13.544;2023-12-20T14:54:39;0.43;;;0.30;;
21334;SDS011;69435;52.670;13.544;2023-12-20T14:57:27;1.60;;;0.43;;
21334;SDS011;69435;52.670;13.544;2023-12-20T15:00:14;1.47;;;0.47;;
21334;SDS011;69435;52.670;13.544;2023-12-20T15:03:02;0.97;;;0.77;;
21334;SDS011;69435;52.670;13.544;2023-12-20T15:05:50;2.27;;;0.47;;
21334;SDS011;69435;52.670;13.544;2023-12-20T15:08:36;0.17;;;0.17;;
21334;SDS011;69435;52.670;13.544;2023-12-20T15:11:21;1.50;;;0.40;;
21334;SDS011;69435;52.670;13.544;2023-12-20T15:14:07;1.17;;;0.60;;
21334;SDS011;69435;52.670;13.544;2023-12-20T15:16:53;1.50;;;0.80;;
21334;SDS011;69435;52.670;13.544;2023-12-20T15:19:41;1.60;;;0.47;;
21334;SDS011;69435;52.670;13.544;2023-12-20T15:22:28;0.57;;;0.40;;
21334;SDS011;69435;52.670;13.544;2023-12-20T15:25:14;0.97;;;0.70;;
21334;SDS011;69435;52.670;13.544;2023-12-20T15:28:07;3.17;;;0.40;;
21334;SDS011;69435;52.670;13.544;2023-12-20T15:30:53;0.50;;;0.50;;
21334;SDS011;69435;52.670;13.544;2023-12-20T15:33:39;0.60;;;0.60;;
21334;SDS011;69435;52.670;13.544;2023-12-20T15:36:25;2.50;;;0.90;;
21334;SDS011;69435;52.670;13.544;2023-12-20T15:39:11;3.50;;;0.97;;
21334;SDS011;69435;52.670;13.544;2023-12-20T15:41:59;3.10;;;1.13;;
21334;SDS011;69435;52.670;13.544;2023-12-20T15:44:45;0.97;;;0.60;;
21334;SDS011;69435;52.670;13.544;2023-12-20T15:47:31;3.07;;;1.10;;
21334;SDS011;69435;52.670;13.544;2023-12-20T15:50:20;3.13;;;0.70;;
21334;SDS011;69435;52.670;13.544;2023-12-20T15:53:06;1.90;;;0.60;;
21334;SDS011;69435;52.670;13.544;2023-12-20T15:55:52;0.83;;;0.83;;
21334;SDS011;69435;52.670;13.544;2023-12-20T15:58:38;3.73;;;0.97;;
21334;SDS011;69435;52.670;13.544;2023-12-20T16:01:24;1.90;;;1.00;;
21334;SDS011;69435;52.670;13.544;2023-12-20T16:04:10;0.50;;;0.50;;
21334;SDS011;69435;52.670;13.544;2023-12-20T16:06:56;4.23;;;1.20;;
21334;SDS011;69435;52.670;13.544;2023-12-20T16:09:42;2.73;;;0.90;;
21334;SDS011;69435;52.670;13.544;2023-12-20T16:12:28;0.80;;;0.80;;
21334;SDS011;69435;52.670;13.544;2023-12-20T16:15:14;2.20;;;1.07;;
21334;SDS011;69435;52.670;13.544;2023-12-20T16:18:00;2.60;;;1.10;;
21334;SDS011;69435;52.670;13.544;2023-12-20T16:20:46;0.80;;;0.80;;
21334;SDS011;69435;52.670;13.544;2023-12-20T16:23:32;3.93;;;1.27;;
21334;SDS011;69435;52.670;13.544;2023-12-20T16:26:18;4.43;;;1.07;;
21334;SDS011;69435;52.670;13.544;2023-12-20T16:29:04;2.37;;;1.30;;
21334;SDS011;69435;52.670;13.544;2023-12-20T16:31:50;2.43;;;1.37;;
21334;SDS011;69435;52.670;13.544;2023-12-20T16:34:36;3.20;;;0.93;;